Airport ID:KO69
Update Time (UTC):15/11/2019 13:56
Wind Speed (Knots):1
Wind Direction (Magnetic):290
Temperature (°C):10
Dew Point (°C):10
Humidity (%):100
Altimeter (inHg):30.19
Density Altitude (Feet):
Visibility (Miles):10+
Clouds (Hundreds of feet):SCT026 SCT037
Present Weather:
METAR:METAR KO69 151355Z AUTO 00000KT 10SM SCT026 SCT037 10/10 A3019 RMK A01

The data displayed is for advisory purposes only and is not to be used for flight planning or operations.

This page is not automatically refreshed. Reload the page to see current data.